createdAt,value
2018-08-16T00:02:30.171Z,76.2
2018-08-16T00:07:31.627Z,77.1
2018-08-16T00:12:31.478Z,76.6
2018-08-16T00:17:31.551Z,76.1
2018-08-16T00:22:31.363Z,76.9
2018-08-16T00:27:31.370Z,77.7
2018-08-16T00:32:31.370Z,78
2018-08-16T00:37:31.584Z,77.2
2018-08-16T00:42:31.428Z,77.6
2018-08-16T00:47:31.525Z,77.8
2018-08-16T00:52:48.474Z,78.1
2018-08-16T00:57:48.194Z,78.4
2018-08-16T01:02:48.197Z,79
2018-08-16T01:07:48.381Z,78.7
2018-08-16T01:12:48.419Z,79.3
2018-08-16T01:17:48.342Z,79.7
2018-08-16T01:22:48.221Z,78.8
2018-08-16T01:27:48.221Z,80.3
2018-08-16T01:32:48.342Z,81.6
2018-08-16T01:38:00.552Z,82
2018-08-16T01:43:00.393Z,81.1
2018-08-16T01:48:00.264Z,81.6
2018-08-16T01:53:00.247Z,80.9
2018-08-16T01:58:00.386Z,83.5
2018-08-16T02:03:00.263Z,82.5
2018-08-16T02:08:00.564Z,82.1
2018-08-16T02:13:00.598Z,83.2
2018-08-16T02:18:00.638Z,83.2
2018-08-16T02:23:00.558Z,83.3
2018-08-16T02:28:00.591Z,83.8
2018-08-16T02:33:00.464Z,83.5
2018-08-16T02:38:00.461Z,82.7
2018-08-16T02:43:01.212Z,83.4
2018-08-16T02:48:11.930Z,82.9
2018-08-16T02:53:11.666Z,83.1
2018-08-16T02:58:11.865Z,83
2018-08-16T03:03:11.688Z,83.6
2018-08-16T03:08:11.842Z,83.5
2018-08-16T03:13:11.876Z,83.2
2018-08-16T03:18:11.788Z,83.3
2018-08-16T03:23:14.379Z,83.9
2018-08-16T03:28:14.104Z,84.5
2018-08-16T03:33:29.568Z,85.1
2018-08-16T03:38:29.444Z,84.5
2018-08-16T03:43:29.293Z,85.8
2018-08-16T03:48:29.281Z,85
2018-08-16T03:53:29.303Z,85.5
2018-08-16T03:58:29.303Z,84.6
2018-08-16T04:03:29.532Z,85.4
2018-08-16T04:08:29.418Z,85.7
2018-08-16T04:13:29.267Z,85.8
2018-08-16T04:18:29.321Z,87.3
2018-08-16T04:23:29.344Z,86
2018-08-16T04:28:29.305Z,87
2018-08-16T04:33:29.321Z,86.8
2018-08-16T04:38:29.325Z,87.2
2018-08-16T04:43:40.430Z,86.2
2018-08-16T04:48:40.595Z,87.2
2018-08-16T04:53:40.396Z,86.2
2018-08-16T04:58:40.356Z,86.3
2018-08-16T05:03:40.543Z,86.5
2018-08-16T05:08:40.520Z,85.5
2018-08-16T05:13:40.396Z,85
2018-08-16T05:18:40.394Z,83.2
2018-08-16T05:23:40.532Z,83.3
2018-08-16T05:28:51.851Z,80.9
2018-08-16T05:33:51.618Z,80.8
2018-08-16T05:38:51.661Z,80.7
2018-08-16T05:43:51.584Z,80
2018-08-16T05:48:51.816Z,78.7
2018-08-16T05:53:51.582Z,78.6
2018-08-16T05:58:51.575Z,77.6
2018-08-16T06:03:51.710Z,76.5
2018-08-16T06:08:51.737Z,75.8
2018-08-16T06:13:51.688Z,74.3
2018-08-16T06:18:51.604Z,74.5
2018-08-16T06:23:51.742Z,72.9
2018-08-16T06:28:55.610Z,72.7
2018-08-16T06:33:55.331Z,70.3
2018-08-16T06:39:05.955Z,68.7
2018-08-16T06:44:05.831Z,68.7
2018-08-16T06:49:05.887Z,67.8
2018-08-16T06:54:05.898Z,69.3
2018-08-16T06:59:05.822Z,67.1
2018-08-16T07:04:06.781Z,67.3
2018-08-16T07:09:06.799Z,66.2
2018-08-16T07:14:08.696Z,65.7
2018-08-16T07:19:08.417Z,63.8
2018-08-16T07:24:20.746Z,65.5
2018-08-16T07:29:20.322Z,63.5
2018-08-16T07:34:20.510Z,64.2
2018-08-16T07:39:20.542Z,63.4
2018-08-16T07:44:20.270Z,63.7
2018-08-16T07:49:20.320Z,62.1
2018-08-16T07:54:20.479Z,61.1
2018-08-16T07:59:25.915Z,61.1
2018-08-16T08:04:25.762Z,59.2
2018-08-16T08:09:38.685Z,58.8
2018-08-16T08:14:37.979Z,58.2
2018-08-16T08:19:37.831Z,57.9
2018-08-16T08:24:38.064Z,59
2018-08-16T08:29:37.981Z,58.6
2018-08-16T08:34:37.854Z,57.4
2018-08-16T08:39:37.842Z,57.4
2018-08-16T08:44:37.864Z,55.1
2018-08-16T08:49:38.012Z,54.5
2018-08-16T08:54:50.195Z,54.8
2018-08-16T08:59:49.940Z,54.6
2018-08-16T09:04:50.150Z,54.6
2018-08-16T09:09:50.123Z,54.1
2018-08-16T09:14:50.257Z,51.9
2018-08-16T09:19:49.939Z,51.3
2018-08-16T09:24:50.141Z,49.7
2018-08-16T09:29:51.420Z,49.4
2018-08-16T09:34:51.108Z,50.5
2018-08-16T09:40:04.489Z,49.2
2018-08-16T09:45:04.403Z,49.9
2018-08-16T09:50:05.463Z,46.4
2018-08-16T09:55:04.533Z,44.1
2018-08-16T10:00:04.234Z,45.2
2018-08-16T10:05:04.445Z,44.9
2018-08-16T10:10:04.482Z,44
2018-08-16T10:15:07.798Z,45.5
2018-08-16T10:20:04.861Z,45
2018-08-16T10:25:17.497Z,39.9
2018-08-16T10:30:16.980Z,39.1
2018-08-16T10:35:17.124Z,40.2
2018-08-16T10:40:16.996Z,41.5
2018-08-16T10:45:17.209Z,39.9
2018-08-16T10:50:17.006Z,38.7
2018-08-16T10:55:17.185Z,40.5
2018-08-16T11:00:17.241Z,39.9
2018-08-16T11:05:17.133Z,39.4
2018-08-16T11:10:17.166Z,37.7
2018-08-16T11:15:17.219Z,38.8
2018-08-16T11:20:17.009Z,38.4
2018-08-16T11:25:17.023Z,38.3
2018-08-16T11:30:17.200Z,38.3
2018-08-16T11:35:29.402Z,36.7
2018-08-16T11:40:28.981Z,37.1
2018-08-16T11:45:29.186Z,36.1
2018-08-16T11:50:29.005Z,35.4
2018-08-16T11:55:29.144Z,33.9
2018-08-16T12:00:28.996Z,36.2
2018-08-16T12:05:30.242Z,36
2018-08-16T12:10:29.136Z,34.5
2018-08-16T12:15:29.018Z,35.3
2018-08-16T12:20:42.889Z,34.3
2018-08-16T12:25:42.554Z,34.3
2018-08-16T12:30:42.631Z,33
2018-08-16T12:35:42.730Z,34.3
2018-08-16T12:40:42.787Z,35
2018-08-16T12:45:42.605Z,32.5
2018-08-16T12:50:42.601Z,32.1
2018-08-16T12:55:42.758Z,31.2
2018-08-16T13:00:42.788Z,32.4
2018-08-16T13:05:42.617Z,33
2018-08-16T13:10:42.873Z,32.3
2018-08-16T13:15:42.588Z,32.8
2018-08-16T13:20:42.628Z,32.6
2018-08-16T13:25:42.642Z,32.9
2018-08-16T13:30:54.461Z,32.9
2018-08-16T13:35:54.208Z,31.7
2018-08-16T13:40:54.332Z,31.8
2018-08-16T13:45:54.188Z,32.3
2018-08-16T13:50:54.457Z,33.4
2018-08-16T13:55:54.333Z,33.3
2018-08-16T14:00:54.238Z,33.3
2018-08-16T14:05:56.069Z,32.5
2018-08-16T14:10:55.786Z,32.9
2018-08-16T14:16:08.911Z,33.3
2018-08-16T14:21:08.761Z,33.4
2018-08-16T14:26:08.704Z,33.2
2018-08-16T14:31:08.711Z,33.2
2018-08-16T14:36:08.564Z,33.8
2018-08-16T14:41:08.551Z,33.6
2018-08-16T14:46:08.706Z,33.5
2018-08-16T14:51:08.752Z,33.1
2018-08-16T14:56:08.582Z,33.2
2018-08-16T15:01:08.568Z,34.3
2018-08-16T15:06:08.556Z,33.9
2018-08-16T15:11:08.571Z,34.1
2018-08-16T15:16:08.577Z,33.9
2018-08-16T15:21:08.576Z,33.4
2018-08-16T15:26:19.383Z,33.9
2018-08-16T15:31:19.087Z,34.1
2018-08-16T15:36:19.340Z,33.5
2018-08-16T15:41:19.097Z,34.8
2018-08-16T15:46:19.107Z,33.8
2018-08-16T15:51:19.175Z,34
2018-08-16T15:56:19.123Z,34.1
2018-08-16T16:01:22.456Z,34.3
2018-08-16T16:06:22.483Z,35
2018-08-16T16:11:33.824Z,34.1
2018-08-16T16:16:33.542Z,35.4
2018-08-16T16:21:33.601Z,35.2
2018-08-16T16:26:33.558Z,34.7
2018-08-16T16:31:33.813Z,36.2
2018-08-16T16:36:33.803Z,36.6
2018-08-16T16:41:35.051Z,36.1
2018-08-16T16:46:35.476Z,36.2
2018-08-16T16:51:35.178Z,37.1
2018-08-16T16:56:45.188Z,36.1
2018-08-16T17:01:44.931Z,37.6
2018-08-16T17:06:45.115Z,37.9
2018-08-16T17:11:45.994Z,38.4
2018-08-16T17:16:44.933Z,37.9
2018-08-16T17:21:44.939Z,39.1
2018-08-16T17:26:45.171Z,39.3
2018-08-16T17:31:44.891Z,38.7
2018-08-16T17:36:45.108Z,39.6
2018-08-16T17:41:56.643Z,39.3
2018-08-16T17:46:56.374Z,40.1
2018-08-16T17:51:56.345Z,41
2018-08-16T17:56:56.501Z,42.8
2018-08-16T18:01:56.381Z,42.3
2018-08-16T18:06:56.359Z,42.1
2018-08-16T18:11:56.394Z,42.2
2018-08-16T18:16:56.355Z,42.9
2018-08-16T18:21:56.616Z,43.2
2018-08-16T18:27:08.269Z,44.5
2018-08-16T18:32:08.241Z,44.2
2018-08-16T18:37:08.146Z,44.5
2018-08-16T18:42:08.172Z,45.4
2018-08-16T18:47:08.037Z,45.8
2018-08-16T18:52:08.010Z,47
2018-08-16T18:57:07.962Z,47.1
2018-08-16T19:02:09.311Z,47.9
2018-08-16T19:07:09.042Z,48
2018-08-16T19:12:20.803Z,47.7
2018-08-16T19:17:20.439Z,47.7
2018-08-16T19:22:20.457Z,47.8
2018-08-16T19:27:20.524Z,48.6
2018-08-16T19:32:21.701Z,50.1
2018-08-16T19:37:20.486Z,52.6
2018-08-16T19:42:20.503Z,53.1
2018-08-16T19:47:20.522Z,52.7
2018-08-16T19:52:20.495Z,53.4
2018-08-16T19:57:20.670Z,53.1
2018-08-16T20:02:20.522Z,55.7
2018-08-16T20:07:20.459Z,57.1
2018-08-16T20:12:23.435Z,56.7
2018-08-16T20:17:23.390Z,57.6
2018-08-16T20:22:35.429Z,59
2018-08-16T20:27:35.016Z,60.2
2018-08-16T20:32:35.141Z,59.7
2018-08-16T20:37:34.995Z,61.4
2018-08-16T20:42:35.182Z,61.8
2018-08-16T20:47:35.181Z,62
2018-08-16T20:52:35.131Z,61.2
2018-08-16T20:57:35.963Z,61.4
2018-08-16T21:02:35.715Z,62.4
2018-08-16T21:07:47.700Z,63.6
2018-08-16T21:12:47.449Z,62.3
2018-08-16T21:17:47.393Z,64.7
2018-08-16T21:22:47.431Z,64.9
2018-08-16T21:27:47.589Z,65.4
2018-08-16T21:32:47.429Z,65.9
2018-08-16T21:37:47.566Z,67.3
2018-08-16T21:42:47.619Z,67.5
2018-08-16T21:47:47.437Z,68.3
2018-08-16T21:52:47.567Z,67.7
2018-08-16T21:57:47.606Z,67.3
2018-08-16T22:02:47.693Z,68.1
2018-08-16T22:07:48.148Z,68.1
2018-08-16T22:12:48.141Z,67.1
2018-08-16T22:18:00.717Z,66.8
2018-08-16T22:23:00.274Z,67
2018-08-16T22:28:00.203Z,66.8
2018-08-16T22:33:00.320Z,69.3
2018-08-16T22:38:00.270Z,69.8
2018-08-16T22:43:00.226Z,70.8
2018-08-16T22:48:00.346Z,70.7
2018-08-16T22:53:00.254Z,70.3
2018-08-16T22:58:00.315Z,71.6
2018-08-16T23:03:14.823Z,72.6
2018-08-16T23:08:14.717Z,73
2018-08-16T23:13:14.748Z,73.3
2018-08-16T23:18:14.684Z,75.4
2018-08-16T23:23:14.550Z,74.6
2018-08-16T23:28:15.638Z,74.2
2018-08-16T23:33:15.346Z,74.9
2018-08-16T23:38:15.368Z,74.5
2018-08-16T23:43:15.618Z,74.5
2018-08-16T23:48:15.378Z,75.6
2018-08-16T23:53:15.528Z,77.6
2018-08-16T23:58:15.574Z,76.1
